sensor_id;sensor_type;location;lat;lon;timestamp;pressure;altitude;pressure_sealevel;temperature;humidity
58243;BME280;50118;53.232;8.252;2023-05-23T00:00:35;101293.00;;;13.27;100.00
58243;BME280;50118;53.232;8.252;2023-05-23T00:03:01;101300.09;;;13.18;100.00
58243;BME280;50118;53.232;8.252;2023-05-23T00:05:27;101297.84;;;13.14;100.00
58243;BME280;50118;53.232;8.252;2023-05-23T00:07:53;101287.44;;;13.11;100.00
58243;BME280;50118;53.232;8.252;2023-05-23T00:10:19;101294.78;;;13.08;100.00
58243;BME280;50118;53.232;8.252;2023-05-23T00:12:44;101300.53;;;13.14;100.00
58243;BME280;50118;53.232;8.252;2023-05-23T00:15:12;101289.13;;;13.12;100.00
58243;BME280;50118;53.232;8.252;2023-05-23T00:17:38;101291.38;;;13.16;100.00
58243;BME280;50118;53.232;8.252;2023-05-23T00:20:07;101297.56;;;13.17;100.00
58243;BME280;50118;53.232;8.252;2023-05-23T00:22:44;101286.47;;;13.12;100.00
58243;BME280;50118;53.232;8.252;2023-05-23T00:25:12;101285.44;;;13.13;100.00
58243;BME280;50118;53.232;8.252;2023-05-23T00:27:38;101288.69;;;13.16;100.00
58243;BME280;50118;53.232;8.252;2023-05-23T00:30:03;101282.94;;;13.11;100.00
58243;BME280;50118;53.232;8.252;2023-05-23T00:32:29;101286.03;;;13.16;100.00
58243;BME280;50118;53.232;8.252;2023-05-23T00:34:55;101281.50;;;13.17;100.00
58243;BME280;50118;53.232;8.252;2023-05-23T00:37:21;101277.53;;;13.21;100.00
58243;BME280;50118;53.232;8.252;2023-05-23T00:39:47;101277.84;;;13.18;100.00
58243;BME280;50118;53.232;8.252;2023-05-23T00:42:13;101282.38;;;13.07;100.00
58243;BME280;50118;53.232;8.252;2023-05-23T00:44:41;101287.59;;;13.09;100.00
58243;BME280;50118;53.232;8.252;2023-05-23T00:47:07;101288.72;;;13.06;100.00
58243;BME280;50118;53.232;8.252;2023-05-23T00:49:33;101277.91;;;13.08;100.00
58243;BME280;50118;53.232;8.252;2023-05-23T00:51:59;101279.00;;;13.05;100.00
58243;BME280;50118;53.232;8.252;2023-05-23T00:54:28;101283.00;;;13.01;100.00
58243;BME280;50118;53.232;8.252;2023-05-23T00:56:55;101266.97;;;12.92;100.00
58243;BME280;50118;53.232;8.252;2023-05-23T00:59:25;101281.28;;;13.00;100.00
58243;BME280;50118;53.232;8.252;2023-05-23T01:01:51;101273.97;;;13.02;100.00
58243;BME280;50118;53.232;8.252;2023-05-23T01:04:19;101266.66;;;13.04;100.00
58243;BME280;50118;53.232;8.252;2023-05-23T01:06:45;101270.00;;;13.06;100.00
58243;BME280;50118;53.232;8.252;2023-05-23T01:09:17;101264.66;;;13.06;100.00
58243;BME280;50118;53.232;8.252;2023-05-23T01:14:31;101252.03;;;12.99;100.00
58243;BME280;50118;53.232;8.252;2023-05-23T01:17:09;101242.44;;;13.06;100.00
58243;BME280;50118;53.232;8.252;2023-05-23T01:20:01;101245.94;;;13.06;100.00
58243;BME280;50118;53.232;8.252;2023-05-23T01:28:04;101256.78;;;13.05;100.00
58243;BME280;50118;53.232;8.252;2023-05-23T01:30:38;101260.91;;;12.99;100.00
58243;BME280;50118;53.232;8.252;2023-05-23T01:33:05;101276.56;;;12.94;100.00
58243;BME280;50118;53.232;8.252;2023-05-23T01:35:32;101270.66;;;12.91;100.00
58243;BME280;50118;53.232;8.252;2023-05-23T01:37:58;101267.88;;;12.82;100.00
58243;BME280;50118;53.232;8.252;2023-05-23T01:40:24;101271.28;;;13.02;100.00
58243;BME280;50118;53.232;8.252;2023-05-23T01:42:51;101271.78;;;12.88;100.00
58243;BME280;50118;53.232;8.252;2023-05-23T01:45:18;101264.19;;;12.83;100.00
58243;BME280;50118;53.232;8.252;2023-05-23T01:47:46;101269.81;;;12.90;100.00
58243;BME280;50118;53.232;8.252;2023-05-23T01:50:14;101274.72;;;12.95;100.00
58243;BME280;50118;53.232;8.252;2023-05-23T01:52:41;101273.09;;;12.84;100.00
58243;BME280;50118;53.232;8.252;2023-05-23T01:55:08;101271.78;;;12.88;100.00
58243;BME280;50118;53.232;8.252;2023-05-23T01:57:35;101270.09;;;12.87;100.00
58243;BME280;50118;53.232;8.252;2023-05-23T02:00:05;101277.72;;;12.82;100.00
58243;BME280;50118;53.232;8.252;2023-05-23T02:02:39;101278.25;;;12.85;100.00
58243;BME280;50118;53.232;8.252;2023-05-23T02:05:04;101268.16;;;12.79;100.00
58243;BME280;50118;53.232;8.252;2023-05-23T02:07:30;101269.00;;;12.80;100.00
58243;BME280;50118;53.232;8.252;2023-05-23T02:09:56;101276.31;;;12.87;100.00
58243;BME280;50118;53.232;8.252;2023-05-23T02:12:22;101278.25;;;12.85;100.00
58243;BME280;50118;53.232;8.252;2023-05-23T02:14:53;101275.03;;;12.82;100.00
58243;BME280;50118;53.232;8.252;2023-05-23T02:17:19;101272.63;;;12.88;100.00
58243;BME280;50118;53.232;8.252;2023-05-23T02:19:47;101271.53;;;12.81;100.00
58243;BME280;50118;53.232;8.252;2023-05-23T02:22:14;101275.78;;;12.74;100.00
58243;BME280;50118;53.232;8.252;2023-05-23T02:24:40;101265.34;;;12.81;100.00
58243;BME280;50118;53.232;8.252;2023-05-23T02:27:05;101274.06;;;12.83;100.00
58243;BME280;50118;53.232;8.252;2023-05-23T02:29:34;101278.31;;;12.76;100.00
58243;BME280;50118;53.232;8.252;2023-05-23T02:32:00;101268.03;;;12.81;100.00
58243;BME280;50118;53.232;8.252;2023-05-23T02:34:25;101276.59;;;12.84;100.00
58243;BME280;50118;53.232;8.252;2023-05-23T02:36:51;101272.06;;;12.85;100.00
58243;BME280;50118;53.232;8.252;2023-05-23T02:39:16;101272.69;;;12.79;100.00
58243;BME280;50118;53.232;8.252;2023-05-23T02:41:42;101274.19;;;12.81;100.00
58243;BME280;50118;53.232;8.252;2023-05-23T02:44:08;101278.72;;;12.81;100.00
58243;BME280;50118;53.232;8.252;2023-05-23T02:46:37;101277.44;;;12.75;100.00
58243;BME280;50118;53.232;8.252;2023-05-23T02:49:02;101289.16;;;12.74;100.00
58243;BME280;50118;53.232;8.252;2023-05-23T02:51:30;101295.16;;;12.86;100.00
58243;BME280;50118;53.232;8.252;2023-05-23T02:53:56;101295.44;;;12.83;100.00
58243;BME280;50118;53.232;8.252;2023-05-23T02:56:22;101297.72;;;12.78;100.00
58243;BME280;50118;53.232;8.252;2023-05-23T02:58:48;101301.09;;;12.70;100.00
58243;BME280;50118;53.232;8.252;2023-05-23T03:01:13;101291.00;;;12.74;100.00
58243;BME280;50118;53.232;8.252;2023-05-23T03:03:39;101300.81;;;12.73;100.00
58243;BME280;50118;53.232;8.252;2023-05-23T03:06:06;101309.84;;;12.72;100.00
58243;BME280;50118;53.232;8.252;2023-05-23T03:08:32;101301.69;;;12.74;100.00
58243;BME280;50118;53.232;8.252;2023-05-23T03:10:57;101303.34;;;12.75;100.00
58243;BME280;50118;53.232;8.252;2023-05-23T03:13:23;101310.56;;;12.64;100.00
58243;BME280;50118;53.232;8.252;2023-05-23T03:15:51;101308.16;;;12.71;100.00
58243;BME280;50118;53.232;8.252;2023-05-23T03:18:24;101322.94;;;12.65;100.00
58243;BME280;50118;53.232;8.252;2023-05-23T03:20:50;101319.13;;;12.68;100.00
58243;BME280;50118;53.232;8.252;2023-05-23T03:23:15;101312.69;;;12.61;100.00
58243;BME280;50118;53.232;8.252;2023-05-23T03:25:42;101319.16;;;12.58;100.00
58243;BME280;50118;53.232;8.252;2023-05-23T03:28:07;101323.22;;;12.62;100.00
58243;BME280;50118;53.232;8.252;2023-05-23T03:30:36;101312.69;;;12.51;100.00
58243;BME280;50118;53.232;8.252;2023-05-23T03:33:05;101315.53;;;12.40;100.00
58243;BME280;50118;53.232;8.252;2023-05-23T03:35:31;101315.81;;;12.37;100.00
58243;BME280;50118;53.232;8.252;2023-05-23T03:37:57;101325.38;;;12.39;100.00
58243;BME280;50118;53.232;8.252;2023-05-23T03:40:23;101330.84;;;12.38;100.00
58243;BME280;50118;53.232;8.252;2023-05-23T03:43:00;101345.63;;;12.22;100.00
58243;BME280;50118;53.232;8.252;2023-05-23T03:45:27;101337.91;;;12.19;100.00
58243;BME280;50118;53.232;8.252;2023-05-23T03:47:52;101333.97;;;12.23;100.00
58243;BME280;50118;53.232;8.252;2023-05-23T03:50:18;101336.78;;;12.22;100.00
58243;BME280;50118;53.232;8.252;2023-05-23T03:52:43;101341.69;;;12.07;100.00
58243;BME280;50118;53.232;8.252;2023-05-23T03:55:09;101357.16;;;12.13;100.00
58243;BME280;50118;53.232;8.252;2023-05-23T03:57:35;101354.22;;;12.16;100.00
58243;BME280;50118;53.232;8.252;2023-05-23T04:00:02;101351.81;;;12.13;100.00
58243;BME280;50118;53.232;8.252;2023-05-23T04:02:30;101357.44;;;12.10;100.00
58243;BME280;50118;53.232;8.252;2023-05-23T04:04:55;101359.41;;;12.08;100.00
58243;BME280;50118;53.232;8.252;2023-05-23T04:07:21;101363.06;;;11.97;100.00
58243;BME280;50118;53.232;8.252;2023-05-23T04:09:47;101363.06;;;11.97;100.00
58243;BME280;50118;53.232;8.252;2023-05-23T04:12:13;101366.16;;;11.92;100.00
58243;BME280;50118;53.232;8.252;2023-05-23T04:14:38;101365.88;;;11.95;100.00
58243;BME280;50118;53.232;8.252;2023-05-23T04:17:04;101367.81;;;11.93;100.00
58243;BME280;50118;53.232;8.252;2023-05-23T04:19:29;101381.31;;;11.92;100.00
58243;BME280;50118;53.232;8.252;2023-05-23T04:21:55;101386.09;;;11.98;100.00
58243;BME280;50118;53.232;8.252;2023-05-23T04:24:20;101385.47;;;11.85;100.00
58243;BME280;50118;53.232;8.252;2023-05-23T04:26:46;101382.81;;;11.75;100.00
58243;BME280;50118;53.232;8.252;2023-05-23T04:29:11;101386.88;;;11.79;100.00
58243;BME280;50118;53.232;8.252;2023-05-23T04:31:37;101391.63;;;11.66;100.00
58243;BME280;50118;53.232;8.252;2023-05-23T04:34:02;101390.50;;;11.68;100.00
58243;BME280;50118;53.232;8.252;2023-05-23T04:36:28;101398.66;;;11.67;100.00
58243;BME280;50118;53.232;8.252;2023-05-23T04:38:54;101393.31;;;11.67;100.00
58243;BME280;50118;53.232;8.252;2023-05-23T04:41:20;101399.19;;;11.61;100.00
58243;BME280;50118;53.232;8.252;2023-05-23T04:43:47;101397.16;;;11.43;100.00
58243;BME280;50118;53.232;8.252;2023-05-23T04:46:18;101399.44;;;11.57;100.00
58243;BME280;50118;53.232;8.252;2023-05-23T04:48:46;101411.25;;;11.55;100.00
58243;BME280;50118;53.232;8.252;2023-05-23T04:51:15;101401.13;;;11.49;100.00
58243;BME280;50118;53.232;8.252;2023-05-23T04:53:41;101407.56;;;11.46;100.00
58243;BME280;50118;53.232;8.252;2023-05-23T04:56:07;101423.59;;;11.46;100.00
58243;BME280;50118;53.232;8.252;2023-05-23T04:58:33;101432.09;;;11.40;100.00
58243;BME280;50118;53.232;8.252;2023-05-23T05:00:59;101433.06;;;11.39;100.00
58243;BME280;50118;53.232;8.252;2023-05-23T05:03:24;101437.56;;;11.38;100.00
58243;BME280;50118;53.232;8.252;2023-05-23T05:05:50;101444.28;;;11.33;100.00
58243;BME280;50118;53.232;8.252;2023-05-23T05:08:16;101440.75;;;11.23;100.00
58243;BME280;50118;53.232;8.252;2023-05-23T05:10:44;101454.72;;;11.15;100.00
58243;BME280;50118;53.232;8.252;2023-05-23T05:13:09;101454.22;;;11.00;100.00
58243;BME280;50118;53.232;8.252;2023-05-23T05:15:35;101464.34;;;11.06;100.00
58243;BME280;50118;53.232;8.252;2023-05-23T05:18:00;101470.22;;;11.00;100.00
58243;BME280;50118;53.232;8.252;2023-05-23T05:20:25;101474.47;;;10.91;100.00
58243;BME280;50118;53.232;8.252;2023-05-23T05:23:00;101488.13;;;10.98;100.00
58243;BME280;50118;53.232;8.252;2023-05-23T05:25:26;101480.69;;;10.92;100.00
58243;BME280;50118;53.232;8.252;2023-05-23T05:27:55;101484.88;;;10.73;100.00
58243;BME280;50118;53.232;8.252;2023-05-23T05:30:21;101501.59;;;10.75;100.00
58243;BME280;50118;53.232;8.252;2023-05-23T05:32:46;101488.00;;;10.78;100.00
58243;BME280;50118;53.232;8.252;2023-05-23T05:35:12;101499.16;;;10.72;100.00
58243;BME280;50118;53.232;8.252;2023-05-23T05:37:41;101500.78;;;10.63;100.00
58243;BME280;50118;53.232;8.252;2023-05-23T05:40:06;101495.31;;;10.65;100.00
58243;BME280;50118;53.232;8.252;2023-05-23T05:42:33;101494.91;;;10.49;100.00
58243;BME280;50118;53.232;8.252;2023-05-23T05:44:58;101508.66;;;10.65;100.00
58243;BME280;50118;53.232;8.252;2023-05-23T05:47:26;101505.75;;;10.57;100.00
58243;BME280;50118;53.232;8.252;2023-05-23T05:49:51;101518.13;;;10.58;100.00
58243;BME280;50118;53.232;8.252;2023-05-23T05:52:16;101525.13;;;10.59;100.00
58243;BME280;50118;53.232;8.252;2023-05-23T05:54:42;101525.66;;;10.53;100.00
58243;BME280;50118;53.232;8.252;2023-05-23T05:57:07;101525.56;;;10.43;100.00
58243;BME280;50118;53.232;8.252;2023-05-23T05:59:32;101538.75;;;10.44;100.00
58243;BME280;50118;53.232;8.252;2023-05-23T06:01:58;101530.28;;;10.39;100.00
58243;BME280;50118;53.232;8.252;2023-05-23T06:04:23;101543.81;;;10.48;100.00
58243;BME280;50118;53.232;8.252;2023-05-23T06:06:49;101542.38;;;10.43;100.00
58243;BME280;50118;53.232;8.252;2023-05-23T06:09:15;101542.22;;;10.56;100.00
58243;BME280;50118;53.232;8.252;2023-05-23T06:11:40;101548.69;;;10.42;100.00
58243;BME280;50118;53.232;8.252;2023-05-23T06:14:06;101537.81;;;10.34;100.00
58243;BME280;50118;53.232;8.252;2023-05-23T06:16:32;101562.72;;;10.33;100.00
58243;BME280;50118;53.232;8.252;2023-05-23T06:18:57;101567.06;;;10.23;100.00
58243;BME280;50118;53.232;8.252;2023-05-23T06:21:23;101557.16;;;10.25;100.00
58243;BME280;50118;53.232;8.252;2023-05-23T06:23:48;101555.94;;;10.29;100.00
58243;BME280;50118;53.232;8.252;2023-05-23T06:26:14;101570.22;;;10.28;100.00
58243;BME280;50118;53.232;8.252;2023-05-23T06:28:39;101572.63;;;10.31;100.00
58243;BME280;50118;53.232;8.252;2023-05-23T06:31:05;101569.38;;;10.27;100.00
58243;BME280;50118;53.232;8.252;2023-05-23T06:33:31;101567.81;;;10.36;100.00
58243;BME280;50118;53.232;8.252;2023-05-23T06:35:56;101569.75;;;10.34;100.00
58243;BME280;50118;53.232;8.252;2023-05-23T06:38:22;101582.72;;;10.39;100.00
58243;BME280;50118;53.232;8.252;2023-05-23T06:40:47;101601.09;;;10.19;100.00
58243;BME280;50118;53.232;8.252;2023-05-23T06:43:13;101592.50;;;10.16;100.00
58243;BME280;50118;53.232;8.252;2023-05-23T06:45:38;101596.22;;;10.24;100.00
58243;BME280;50118;53.232;8.252;2023-05-23T06:48:04;101602.19;;;10.17;100.00
58243;BME280;50118;53.232;8.252;2023-05-23T06:50:30;101601.44;;;10.15;100.00
58243;BME280;50118;53.232;8.252;2023-05-23T06:52:55;101597.34;;;10.10;100.00
58243;BME280;50118;53.232;8.252;2023-05-23T06:55:22;101604.84;;;10.17;100.00
58243;BME280;50118;53.232;8.252;2023-05-23T06:57:47;101621.06;;;10.25;100.00
58243;BME280;50118;53.232;8.252;2023-05-23T07:00:16;101618.50;;;10.12;100.00
58243;BME280;50118;53.232;8.252;2023-05-23T07:02:42;101626.63;;;10.10;100.00
58243;BME280;50118;53.232;8.252;2023-05-23T07:05:09;101636.91;;;10.15;100.00
58243;BME280;50118;53.232;8.252;2023-05-23T07:07:35;101633.88;;;10.08;100.00
58243;BME280;50118;53.232;8.252;2023-05-23T07:10:00;101640.41;;;10.04;100.00
58243;BME280;50118;53.232;8.252;2023-05-23T07:12:25;101644.16;;;10.02;100.00
58243;BME280;50118;53.232;8.252;2023-05-23T07:14:51;101633.59;;;9.89;100.00
58243;BME280;50118;53.232;8.252;2023-05-23T07:17:16;101645.72;;;9.93;100.00
58243;BME280;50118;53.232;8.252;2023-05-23T07:19:42;101646.19;;;10.09;100.00
58243;BME280;50118;53.232;8.252;2023-05-23T07:22:07;101655.41;;;10.05;100.00
58243;BME280;50118;53.232;8.252;2023-05-23T07:24:32;101662.16;;;9.87;100.00
58243;BME280;50118;53.232;8.252;2023-05-23T07:26:58;101662.75;;;9.90;100.00
58243;BME280;50118;53.232;8.252;2023-05-23T07:29:23;101662.38;;;9.72;100.00
58243;BME280;50118;53.232;8.252;2023-05-23T07:31:49;101668.47;;;9.86;100.00
58243;BME280;50118;53.232;8.252;2023-05-23T07:34:14;101669.41;;;9.85;100.00
58243;BME280;50118;53.232;8.252;2023-05-23T07:36:40;101680.31;;;9.93;100.00
58243;BME280;50118;53.232;8.252;2023-05-23T07:39:09;101685.38;;;9.85;100.00
58243;BME280;50118;53.232;8.252;2023-05-23T07:41:35;101684.19;;;10.00;100.00
58243;BME280;50118;53.232;8.252;2023-05-23T07:44:00;101688.66;;;9.88;100.00
58243;BME280;50118;53.232;8.252;2023-05-23T07:46:26;101697.59;;;9.87;100.00
58243;BME280;50118;53.232;8.252;2023-05-23T07:48:51;101702.78;;;9.89;100.00
58243;BME280;50118;53.232;8.252;2023-05-23T07:51:16;101703.28;;;9.83;100.00
58243;BME280;50118;53.232;8.252;2023-05-23T07:53:46;101703.75;;;9.77;100.00
58243;BME280;50118;53.232;8.252;2023-05-23T07:56:11;101694.56;;;9.81;100.00
58243;BME280;50118;53.232;8.252;2023-05-23T07:58:36;101725.50;;;9.70;100.00
58243;BME280;50118;53.232;8.252;2023-05-23T08:01:02;101711.56;;;9.67;100.00
58243;BME280;50118;53.232;8.252;2023-05-23T08:03:27;101720.53;;;9.66;100.00
58243;BME280;50118;53.232;8.252;2023-05-23T08:05:53;101722.19;;;9.67;100.00
58243;BME280;50118;53.232;8.252;2023-05-23T08:08:19;101727.88;;;9.62;100.00
58243;BME280;50118;53.232;8.252;2023-05-23T08:10:44;101726.34;;;9.71;100.00
58243;BME280;50118;53.232;8.252;2023-05-23T08:13:11;101730.31;;;9.65;100.00
58243;BME280;50118;53.232;8.252;2023-05-23T08:15:36;101732.50;;;9.71;100.00
58243;BME280;50118;53.232;8.252;2023-05-23T08:18:03;101741.00;;;9.77;100.00
58243;BME280;50118;53.232;8.252;2023-05-23T08:20:29;101746.00;;;9.57;100.00
58243;BME280;50118;53.232;8.252;2023-05-23T08:22:58;101741.19;;;9.62;100.00
58243;BME280;50118;53.232;8.252;2023-05-23T08:25:24;101754.63;;;9.72;100.00
58243;BME280;50118;53.232;8.252;2023-05-23T08:27:50;101753.34;;;9.78;100.00
58243;BME280;50118;53.232;8.252;2023-05-23T08:30:15;101762.59;;;9.61;100.00
58243;BME280;50118;53.232;8.252;2023-05-23T08:32:41;101752.84;;;9.84;100.00
58243;BME280;50118;53.232;8.252;2023-05-23T08:35:07;101757.72;;;9.90;100.00
58243;BME280;50118;53.232;8.252;2023-05-23T08:37:32;101766.00;;;9.98;100.00
58243;BME280;50118;53.232;8.252;2023-05-23T08:39:58;101765.00;;;9.88;100.00
58243;BME280;50118;53.232;8.252;2023-05-23T08:42:23;101770.22;;;9.65;100.00
58243;BME280;50118;53.232;8.252;2023-05-23T08:44:48;101774.97;;;9.49;100.00
58243;BME280;50118;53.232;8.252;2023-05-23T08:47:15;101792.97;;;9.69;100.00
58243;BME280;50118;53.232;8.252;2023-05-23T08:49:42;101797.59;;;9.79;100.00
58243;BME280;50118;53.232;8.252;2023-05-23T08:52:11;101791.03;;;9.71;100.00
58243;BME280;50118;53.232;8.252;2023-05-23T08:54:37;101805.63;;;9.90;100.00
58243;BME280;50118;53.232;8.252;2023-05-23T08:57:03;101794.66;;;10.06;100.00
58243;BME280;50118;53.232;8.252;2023-05-23T08:59:29;101791.97;;;10.30;100.00
58243;BME280;50118;53.232;8.252;2023-05-23T09:01:57;101797.22;;;10.07;100.00
58243;BME280;50118;53.232;8.252;2023-05-23T09:04:22;101798.44;;;10.50;100.00
58243;BME280;50118;53.232;8.252;2023-05-23T09:06:48;101801.13;;;10.61;100.00
58243;BME280;50118;53.232;8.252;2023-05-23T09:09:13;101810.19;;;11.27;100.00
58243;BME280;50118;53.232;8.252;2023-05-23T09:11:40;101801.84;;;11.75;100.00
58243;BME280;50118;53.232;8.252;2023-05-23T09:14:05;101803.75;;;11.40;100.00
58243;BME280;50118;53.232;8.252;2023-05-23T09:16:32;101806.72;;;11.70;100.00
58243;BME280;50118;53.232;8.252;2023-05-23T09:19:14;101809.31;;;11.92;100.00
58243;BME280;50118;53.232;8.252;2023-05-23T09:21:43;101809.25;;;11.28;100.00
58243;BME280;50118;53.232;8.252;2023-05-23T09:24:10;101823.88;;;11.45;100.00
58243;BME280;50118;53.232;8.252;2023-05-23T09:26:36;101818.91;;;11.29;100.00
58243;BME280;50118;53.232;8.252;2023-05-23T09:29:04;101827.31;;;10.90;100.00
58243;BME280;50118;53.232;8.252;2023-05-23T09:31:30;101826.22;;;11.15;100.00
58243;BME280;50118;53.232;8.252;2023-05-23T09:33:57;101827.19;;;11.03;100.00
58243;BME280;50118;53.232;8.252;2023-05-23T09:36:26;101829.22;;;11.33;100.00
58243;BME280;50118;53.232;8.252;2023-05-23T09:38:53;101835.19;;;11.14;100.00
58243;BME280;50118;53.232;8.252;2023-05-23T09:41:19;101832.88;;;11.32;100.00
58243;BME280;50118;53.232;8.252;2023-05-23T09:43:52;101832.00;;;11.54;100.00
58243;BME280;50118;53.232;8.252;2023-05-23T09:46:19;101843.28;;;11.90;100.00
58243;BME280;50118;53.232;8.252;2023-05-23T09:48:48;101829.44;;;11.96;100.00
58243;BME280;50118;53.232;8.252;2023-05-23T09:51:17;101839.25;;;12.28;100.00
58243;BME280;50118;53.232;8.252;2023-05-23T09:53:43;101826.09;;;12.58;100.00
58243;BME280;50118;53.232;8.252;2023-05-23T09:56:09;101845.94;;;12.86;99.22
58243;BME280;50118;53.232;8.252;2023-05-23T09:58:48;101830.84;;;12.54;97.54
58243;BME280;50118;53.232;8.252;2023-05-23T10:01:15;101847.34;;;12.90;96.59
58243;BME280;50118;53.232;8.252;2023-05-23T10:03:44;101849.72;;;12.83;97.70
58243;BME280;50118;53.232;8.252;2023-05-23T10:06:36;101843.31;;;12.44;98.71
58243;BME280;50118;53.232;8.252;2023-05-23T10:09:16;101842.50;;;12.11;100.00
58243;BME280;50118;53.232;8.252;2023-05-23T10:14:51;101856.59;;;12.55;95.43
58243;BME280;50118;53.232;8.252;2023-05-23T10:17:19;101861.22;;;12.53;98.33
58243;BME280;50118;53.232;8.252;2023-05-23T10:19:57;101876.28;;;12.33;99.25
58243;BME280;50118;53.232;8.252;2023-05-23T10:22:24;101862.16;;;12.63;94.69
58243;BME280;50118;53.232;8.252;2023-05-23T10:24:50;101872.66;;;11.90;97.12
58243;BME280;50118;53.232;8.252;2023-05-23T10:27:16;101867.50;;;12.63;94.72
58243;BME280;50118;53.232;8.252;2023-05-23T10:29:42;101872.22;;;12.39;96.75
58243;BME280;50118;53.232;8.252;2023-05-23T10:32:08;101874.41;;;12.45;95.18
58243;BME280;50118;53.232;8.252;2023-05-23T10:34:56;101870.03;;;12.44;95.92
58243;BME280;50118;53.232;8.252;2023-05-23T10:40:26;101883.16;;;12.14;96.05
58243;BME280;50118;53.232;8.252;2023-05-23T10:45:51;101890.59;;;12.11;96.90
58243;BME280;50118;53.232;8.252;2023-05-23T10:48:34;101875.56;;;11.87;94.93
58243;BME280;50118;53.232;8.252;2023-05-23T10:51:07;101877.91;;;12.66;97.12
58243;BME280;50118;53.232;8.252;2023-05-23T10:53:51;101879.19;;;12.93;93.70
58243;BME280;50118;53.232;8.252;2023-05-23T10:56:22;101886.84;;;13.07;91.39
58243;BME280;50118;53.232;8.252;2023-05-23T10:58:54;101887.66;;;13.29;92.43
58243;BME280;50118;53.232;8.252;2023-05-23T11:01:20;101890.50;;;12.76;92.53
58243;BME280;50118;53.232;8.252;2023-05-23T11:06:43;101891.19;;;12.36;90.21
58243;BME280;50118;53.232;8.252;2023-05-23T11:09:16;101890.72;;;13.24;87.01
58243;BME280;50118;53.232;8.252;2023-05-23T11:16:57;101899.38;;;13.07;88.26
58243;BME280;50118;53.232;8.252;2023-05-23T11:19:25;101890.22;;;12.58;92.60
58243;BME280;50118;53.232;8.252;2023-05-23T11:22:00;101900.41;;;13.16;93.40
58243;BME280;50118;53.232;8.252;2023-05-23T11:25:03;101906.56;;;13.78;87.80
58243;BME280;50118;53.232;8.252;2023-05-23T11:27:45;101905.53;;;13.29;84.68
58243;BME280;50118;53.232;8.252;2023-05-23T11:30:16;101914.41;;;13.60;83.89
58243;BME280;50118;53.232;8.252;2023-05-23T11:32:52;101913.00;;;13.56;81.65
58243;BME280;50118;53.232;8.252;2023-05-23T11:35:20;101917.84;;;13.81;80.31
58243;BME280;50118;53.232;8.252;2023-05-23T11:37:55;101920.63;;;13.70;86.35
58243;BME280;50118;53.232;8.252;2023-05-23T11:40:28;101921.69;;;13.17;89.14
58243;BME280;50118;53.232;8.252;2023-05-23T11:46:09;101920.47;;;13.31;84.46
58243;BME280;50118;53.232;8.252;2023-05-23T11:48:43;101922.50;;;12.87;85.65
58243;BME280;50118;53.232;8.252;2023-05-23T11:51:15;101924.91;;;13.11;87.57
58243;BME280;50118;53.232;8.252;2023-05-23T11:53:41;101922.44;;;12.56;92.94
58243;BME280;50118;53.232;8.252;2023-05-23T11:56:06;101925.81;;;12.37;89.86
58243;BME280;50118;53.232;8.252;2023-05-23T11:58:36;101929.94;;;13.04;95.29
58243;BME280;50118;53.232;8.252;2023-05-23T12:01:03;101932.47;;;13.68;90.71
58243;BME280;50118;53.232;8.252;2023-05-23T12:03:32;101938.78;;;14.17;88.06
58243;BME280;50118;53.232;8.252;2023-05-23T12:06:00;101937.13;;;13.75;81.94
58243;BME280;50118;53.232;8.252;2023-05-23T12:08:26;101929.25;;;13.74;83.32
58243;BME280;50118;53.232;8.252;2023-05-23T12:10:55;101937.34;;;14.03;80.31
58243;BME280;50118;53.232;8.252;2023-05-23T12:13:25;101932.84;;;14.33;79.32
58243;BME280;50118;53.232;8.252;2023-05-23T12:16:01;101936.84;;;13.69;80.96
58243;BME280;50118;53.232;8.252;2023-05-23T12:18:33;101942.81;;;13.20;84.21
58243;BME280;50118;53.232;8.252;2023-05-23T12:21:04;101931.28;;;12.99;86.26
58243;BME280;50118;53.232;8.252;2023-05-23T12:23:35;101935.50;;;13.22;87.19
58243;BME280;50118;53.232;8.252;2023-05-23T12:26:03;101945.56;;;13.61;82.37
58243;BME280;50118;53.232;8.252;2023-05-23T12:28:49;101946.34;;;13.21;87.69
58243;BME280;50118;53.232;8.252;2023-05-23T12:31:19;101944.28;;;12.61;83.62
58243;BME280;50118;53.232;8.252;2023-05-23T12:33:47;101943.78;;;12.35;87.24
58243;BME280;50118;53.232;8.252;2023-05-23T12:36:20;101941.41;;;12.95;86.01
58243;BME280;50118;53.232;8.252;2023-05-23T12:38:52;101934.31;;;13.36;83.56
58243;BME280;50118;53.232;8.252;2023-05-23T12:41:20;101944.78;;;13.80;79.58
58243;BME280;50118;53.232;8.252;2023-05-23T12:43:54;101936.91;;;13.48;79.68
58243;BME280;50118;53.232;8.252;2023-05-23T12:46:22;101935.97;;;13.58;79.27
58243;BME280;50118;53.232;8.252;2023-05-23T12:48:48;101940.41;;;13.89;77.56
58243;BME280;50118;53.232;8.252;2023-05-23T12:51:14;101953.13;;;13.25;81.72
58243;BME280;50118;53.232;8.252;2023-05-23T12:53:40;101950.28;;;13.17;80.81
58243;BME280;50118;53.232;8.252;2023-05-23T12:56:06;101945.91;;;13.47;81.72
58243;BME280;50118;53.232;8.252;2023-05-23T12:58:32;101962.97;;;13.86;78.72
58243;BME280;50118;53.232;8.252;2023-05-23T13:00:58;101953.41;;;13.22;82.78
58243;BME280;50118;53.232;8.252;2023-05-23T13:03:27;101962.59;;;13.60;77.60
58243;BME280;50118;53.232;8.252;2023-05-23T13:05:55;101962.94;;;13.76;78.88
58243;BME280;50118;53.232;8.252;2023-05-23T13:08:22;101960.03;;;13.49;80.68
58243;BME280;50118;53.232;8.252;2023-05-23T13:10:47;101965.41;;;13.58;82.02
58243;BME280;50118;53.232;8.252;2023-05-23T13:13:13;101967.47;;;13.24;77.74